sensor_id;sensor_type;location;lat;lon;timestamp;pressure;altitude;pressure_sealevel;temperature;humidity
25238;BME280;13185;50.872;5.306;2023-05-20T00:00:24;101881.75;;;14.91;52.98
25238;BME280;13185;50.872;5.306;2023-05-20T00:02:50;101879.34;;;14.87;53.33
25238;BME280;13185;50.872;5.306;2023-05-20T00:05:15;101884.97;;;14.84;53.15
25238;BME280;13185;50.872;5.306;2023-05-20T00:07:41;101882.56;;;14.79;53.62
25238;BME280;13185;50.872;5.306;2023-05-20T00:10:06;101881.78;;;14.77;53.79
25238;BME280;13185;50.872;5.306;2023-05-20T00:12:32;101879.19;;;14.76;53.62
25238;BME280;13185;50.872;5.306;2023-05-20T00:14:59;101880.38;;;14.71;53.85
25238;BME280;13185;50.872;5.306;2023-05-20T00:17:25;101882.31;;;14.69;53.93
25238;BME280;13185;50.872;5.306;2023-05-20T00:19:53;101887.91;;;14.66;54.08
25238;BME280;13185;50.872;5.306;2023-05-20T00:22:19;101888.13;;;14.63;54.27
25238;BME280;13185;50.872;5.306;2023-05-20T00:24:44;101887.53;;;14.58;54.32
25238;BME280;13185;50.872;5.306;2023-05-20T00:27:10;101891.31;;;14.56;54.68
25238;BME280;13185;50.872;5.306;2023-05-20T00:29:35;101884.28;;;14.53;54.86
25238;BME280;13185;50.872;5.306;2023-05-20T00:32:01;101883.53;;;14.51;54.87
25238;BME280;13185;50.872;5.306;2023-05-20T00:34:26;101879.19;;;14.49;55.21
25238;BME280;13185;50.872;5.306;2023-05-20T00:36:52;101889.19;;;14.47;55.31
25238;BME280;13185;50.872;5.306;2023-05-20T00:39:18;101882.16;;;14.44;55.24
25238;BME280;13185;50.872;5.306;2023-05-20T00:41:43;101889.47;;;14.42;55.58
25238;BME280;13185;50.872;5.306;2023-05-20T00:44:09;101889.97;;;14.34;55.63
25238;BME280;13185;50.872;5.306;2023-05-20T00:46:35;101897.41;;;14.31;55.85
25238;BME280;13185;50.872;5.306;2023-05-20T00:49:01;101895.84;;;14.27;56.03
25238;BME280;13185;50.872;5.306;2023-05-20T00:51:26;101896.91;;;14.24;56.13
25238;BME280;13185;50.872;5.306;2023-05-20T00:53:53;101897.97;;;14.22;56.26
25238;BME280;13185;50.872;5.306;2023-05-20T00:56:19;101890.09;;;14.19;56.64
25238;BME280;13185;50.872;5.306;2023-05-20T00:58:46;101885.66;;;14.18;56.44
25238;BME280;13185;50.872;5.306;2023-05-20T01:01:12;101880.34;;;14.16;56.74
25238;BME280;13185;50.872;5.306;2023-05-20T01:03:39;101876.97;;;14.12;56.92
25238;BME280;13185;50.872;5.306;2023-05-20T01:06:05;101876.41;;;14.07;57.13
25238;BME280;13185;50.872;5.306;2023-05-20T01:08:31;101875.63;;;14.05;57.51
25238;BME280;13185;50.872;5.306;2023-05-20T01:13:29;101880.72;;;13.96;57.85
25238;BME280;13185;50.872;5.306;2023-05-20T01:15:57;101886.44;;;13.91;57.84
25238;BME280;13185;50.872;5.306;2023-05-20T01:18:24;101882.28;;;13.85;58.02
25238;BME280;13185;50.872;5.306;2023-05-20T01:20:57;101886.03;;;13.83;58.20
25238;BME280;13185;50.872;5.306;2023-05-20T01:23:40;101884.50;;;13.79;58.56
25238;BME280;13185;50.872;5.306;2023-05-20T01:26:08;101889.41;;;13.72;58.87
25238;BME280;13185;50.872;5.306;2023-05-20T01:28:35;101887.00;;;13.68;59.09
25238;BME280;13185;50.872;5.306;2023-05-20T01:31:04;101880.91;;;13.64;59.35
25238;BME280;13185;50.872;5.306;2023-05-20T01:33:34;101876.56;;;13.62;59.41
25238;BME280;13185;50.872;5.306;2023-05-20T01:36:00;101874.06;;;13.58;59.55
25238;BME280;13185;50.872;5.306;2023-05-20T01:38:26;101870.78;;;13.53;59.79
25238;BME280;13185;50.872;5.306;2023-05-20T01:40:53;101875.41;;;13.51;59.89
25238;BME280;13185;50.872;5.306;2023-05-20T01:43:19;101866.56;;;13.49;59.94
25238;BME280;13185;50.872;5.306;2023-05-20T01:45:46;101864.91;;;13.47;60.44
25238;BME280;13185;50.872;5.306;2023-05-20T01:48:13;101868.84;;;13.41;60.66
25238;BME280;13185;50.872;5.306;2023-05-20T01:50:39;101858.25;;;13.38;60.45
25238;BME280;13185;50.872;5.306;2023-05-20T01:53:05;101856.63;;;13.36;60.79
25238;BME280;13185;50.872;5.306;2023-05-20T01:55:34;101856.78;;;13.33;60.92
25238;BME280;13185;50.872;5.306;2023-05-20T01:58:01;101861.50;;;13.29;61.12
25238;BME280;13185;50.872;5.306;2023-05-20T02:00:26;101849.19;;;13.25;61.17
25238;BME280;13185;50.872;5.306;2023-05-20T02:02:52;101850.22;;;13.22;61.19
25238;BME280;13185;50.872;5.306;2023-05-20T02:05:17;101853.00;;;13.21;61.52
25238;BME280;13185;50.872;5.306;2023-05-20T02:07:43;101858.75;;;13.15;61.38
25238;BME280;13185;50.872;5.306;2023-05-20T02:10:09;101855.25;;;13.13;61.75
25238;BME280;13185;50.872;5.306;2023-05-20T02:12:35;101859.09;;;13.09;61.88
25238;BME280;13185;50.872;5.306;2023-05-20T02:15:01;101866.41;;;13.07;61.89
25238;BME280;13185;50.872;5.306;2023-05-20T02:17:26;101870.31;;;13.01;62.53
25238;BME280;13185;50.872;5.306;2023-05-20T02:19:52;101855.31;;;12.97;62.59
25238;BME280;13185;50.872;5.306;2023-05-20T02:22:17;101862.78;;;12.92;62.97
25238;BME280;13185;50.872;5.306;2023-05-20T02:24:43;101860.28;;;12.89;63.18
25238;BME280;13185;50.872;5.306;2023-05-20T02:27:09;101862.38;;;12.84;63.24
25238;BME280;13185;50.872;5.306;2023-05-20T02:29:36;101855.31;;;12.81;63.30
25238;BME280;13185;50.872;5.306;2023-05-20T02:32:01;101862.63;;;12.79;63.49
25238;BME280;13185;50.872;5.306;2023-05-20T02:34:27;101851.28;;;12.74;63.60
25238;BME280;13185;50.872;5.306;2023-05-20T02:36:54;101846.00;;;12.73;63.79
25238;BME280;13185;50.872;5.306;2023-05-20T02:39:21;101846.25;;;12.68;63.86
25238;BME280;13185;50.872;5.306;2023-05-20T02:41:47;101849.22;;;12.63;64.01
25238;BME280;13185;50.872;5.306;2023-05-20T02:44:13;101849.31;;;12.62;64.27
25238;BME280;13185;50.872;5.306;2023-05-20T02:46:38;101852.16;;;12.59;64.40
25238;BME280;13185;50.872;5.306;2023-05-20T02:49:04;101847.03;;;12.54;64.77
25238;BME280;13185;50.872;5.306;2023-05-20T02:51:30;101850.84;;;12.50;64.87
25238;BME280;13185;50.872;5.306;2023-05-20T02:53:58;101855.34;;;12.50;64.93
25238;BME280;13185;50.872;5.306;2023-05-20T02:56:23;101856.41;;;12.47;65.34
25238;BME280;13185;50.872;5.306;2023-05-20T02:58:49;101855.00;;;12.40;65.37
25238;BME280;13185;50.872;5.306;2023-05-20T03:01:15;101849.72;;;12.38;65.34
25238;BME280;13185;50.872;5.306;2023-05-20T03:03:41;101851.72;;;12.35;65.76
25238;BME280;13185;50.872;5.306;2023-05-20T03:06:07;101844.84;;;12.29;65.74
25238;BME280;13185;50.872;5.306;2023-05-20T03:08:32;101845.91;;;12.27;65.90
25238;BME280;13185;50.872;5.306;2023-05-20T03:11:01;101845.91;;;12.27;66.10
25238;BME280;13185;50.872;5.306;2023-05-20T03:13:27;101847.91;;;12.23;66.33
25238;BME280;13185;50.872;5.306;2023-05-20T03:15:52;101844.53;;;12.20;66.35
25238;BME280;13185;50.872;5.306;2023-05-20T03:18:18;101842.88;;;12.17;66.64
25238;BME280;13185;50.872;5.306;2023-05-20T03:20:45;101849.19;;;12.16;66.62
25238;BME280;13185;50.872;5.306;2023-05-20T03:23:10;101848.44;;;12.14;66.78
25238;BME280;13185;50.872;5.306;2023-05-20T03:25:37;101849.56;;;12.10;67.13
25238;BME280;13185;50.872;5.306;2023-05-20T03:28:04;101847.81;;;12.09;67.49
25238;BME280;13185;50.872;5.306;2023-05-20T03:30:32;101838.16;;;12.05;67.63
25238;BME280;13185;50.872;5.306;2023-05-20T03:32:58;101839.22;;;12.02;67.79
25238;BME280;13185;50.872;5.306;2023-05-20T03:35:25;101839.41;;;11.99;67.61
25238;BME280;13185;50.872;5.306;2023-05-20T03:37:51;101836.94;;;11.95;68.29
25238;BME280;13185;50.872;5.306;2023-05-20T03:40:19;101828.00;;;11.94;68.39
25238;BME280;13185;50.872;5.306;2023-05-20T03:42:46;101828.00;;;11.94;68.66
25238;BME280;13185;50.872;5.306;2023-05-20T03:45:12;101835.22;;;11.94;68.85
25238;BME280;13185;50.872;5.306;2023-05-20T03:47:48;101836.34;;;11.90;68.88
25238;BME280;13185;50.872;5.306;2023-05-20T03:50:16;101840.84;;;11.89;69.03
25238;BME280;13185;50.872;5.306;2023-05-20T03:52:42;101840.91;;;11.88;69.09
25238;BME280;13185;50.872;5.306;2023-05-20T03:55:08;101838.22;;;11.88;69.24
25238;BME280;13185;50.872;5.306;2023-05-20T03:57:33;101829.28;;;11.87;69.28
25238;BME280;13185;50.872;5.306;2023-05-20T04:00:01;101839.19;;;11.87;69.38
25238;BME280;13185;50.872;5.306;2023-05-20T04:02:30;101841.00;;;11.86;69.71
25238;BME280;13185;50.872;5.306;2023-05-20T04:04:56;101835.72;;;11.84;69.71
25238;BME280;13185;50.872;5.306;2023-05-20T04:07:22;101831.28;;;11.83;69.84
25238;BME280;13185;50.872;5.306;2023-05-20T04:09:48;101840.22;;;11.84;69.94
25238;BME280;13185;50.872;5.306;2023-05-20T04:12:14;101841.19;;;11.83;70.10
25238;BME280;13185;50.872;5.306;2023-05-20T04:14:40;101839.34;;;11.83;69.86
25238;BME280;13185;50.872;5.306;2023-05-20T04:17:07;101841.19;;;11.83;70.26
25238;BME280;13185;50.872;5.306;2023-05-20T04:19:32;101843.09;;;11.81;70.44
25238;BME280;13185;50.872;5.306;2023-05-20T04:21:59;101840.31;;;11.82;70.40
25238;BME280;13185;50.872;5.306;2023-05-20T04:24:25;101840.22;;;11.84;70.64
25238;BME280;13185;50.872;5.306;2023-05-20T04:26:52;101844.56;;;11.87;70.84
25238;BME280;13185;50.872;5.306;2023-05-20T04:29:18;101835.53;;;11.88;70.99
25238;BME280;13185;50.872;5.306;2023-05-20T04:31:45;101837.34;;;11.87;71.13
25238;BME280;13185;50.872;5.306;2023-05-20T04:34:11;101839.03;;;11.90;71.39
25238;BME280;13185;50.872;5.306;2023-05-20T04:36:37;101838.06;;;11.91;71.24
25238;BME280;13185;50.872;5.306;2023-05-20T04:39:04;101836.09;;;11.94;71.05
25238;BME280;13185;50.872;5.306;2023-05-20T04:41:30;101840.50;;;11.95;71.35
25238;BME280;13185;50.872;5.306;2023-05-20T04:43:56;101829.66;;;11.97;71.29
25238;BME280;13185;50.872;5.306;2023-05-20T04:46:26;101830.38;;;12.00;71.38
25238;BME280;13185;50.872;5.306;2023-05-20T04:48:52;101837.50;;;12.01;71.74
25238;BME280;13185;50.872;5.306;2023-05-20T04:51:18;101828.09;;;12.08;71.56
25238;BME280;13185;50.872;5.306;2023-05-20T04:53:44;101827.88;;;12.13;71.87
25238;BME280;13185;50.872;5.306;2023-05-20T04:56:10;101825.78;;;12.18;71.86
25238;BME280;13185;50.872;5.306;2023-05-20T04:58:35;101831.59;;;12.26;71.72
25238;BME280;13185;50.872;5.306;2023-05-20T05:01:02;101838.19;;;12.36;71.55
25238;BME280;13185;50.872;5.306;2023-05-20T05:03:28;101838.44;;;12.48;71.29
25238;BME280;13185;50.872;5.306;2023-05-20T05:05:56;101830.81;;;12.56;71.32
25238;BME280;13185;50.872;5.306;2023-05-20T05:08:22;101829.41;;;12.64;71.20
25238;BME280;13185;50.872;5.306;2023-05-20T05:10:50;101825.31;;;12.73;70.92
25238;BME280;13185;50.872;5.306;2023-05-20T05:13:15;101834.75;;;12.80;71.06
25238;BME280;13185;50.872;5.306;2023-05-20T05:15:41;101849.69;;;12.86;70.77
25238;BME280;13185;50.872;5.306;2023-05-20T05:18:07;101833.00;;;12.95;70.47
25238;BME280;13185;50.872;5.306;2023-05-20T05:20:34;101833.22;;;13.06;70.48
25238;BME280;13185;50.872;5.306;2023-05-20T05:22:59;101835.13;;;13.20;70.49
25238;BME280;13185;50.872;5.306;2023-05-20T05:25:27;101831.88;;;13.29;70.24
25238;BME280;13185;50.872;5.306;2023-05-20T05:27:53;101827.16;;;13.33;69.80
25238;BME280;13185;50.872;5.306;2023-05-20T05:30:21;101829.28;;;13.42;69.72
25238;BME280;13185;50.872;5.306;2023-05-20T05:32:46;101827.09;;;13.48;69.70
25238;BME280;13185;50.872;5.306;2023-05-20T05:35:12;101819.78;;;13.50;69.39
25238;BME280;13185;50.872;5.306;2023-05-20T05:37:38;101826.53;;;13.57;69.03
25238;BME280;13185;50.872;5.306;2023-05-20T05:40:05;101820.47;;;13.68;69.10
25238;BME280;13185;50.872;5.306;2023-05-20T05:42:31;101819.59;;;13.82;68.99
25238;BME280;13185;50.872;5.306;2023-05-20T05:44:56;101813.41;;;13.94;68.46
25238;BME280;13185;50.872;5.306;2023-05-20T05:47:22;101816.59;;;14.01;68.35
25238;BME280;13185;50.872;5.306;2023-05-20T05:49:48;101813.69;;;14.04;67.85
25238;BME280;13185;50.872;5.306;2023-05-20T05:52:13;101815.03;;;14.11;67.67
25238;BME280;13185;50.872;5.306;2023-05-20T05:54:40;101805.88;;;14.28;67.51
25238;BME280;13185;50.872;5.306;2023-05-20T05:57:06;101806.09;;;14.37;67.69
25238;BME280;13185;50.872;5.306;2023-05-20T05:59:34;101802.34;;;14.54;67.36
25238;BME280;13185;50.872;5.306;2023-05-20T06:01:59;101809.50;;;14.68;67.10
25238;BME280;13185;50.872;5.306;2023-05-20T06:04:25;101807.16;;;14.76;66.51
25238;BME280;13185;50.872;5.306;2023-05-20T06:06:53;101811.84;;;14.87;66.14
25238;BME280;13185;50.872;5.306;2023-05-20T06:09:19;101813.16;;;14.94;66.33
25238;BME280;13185;50.872;5.306;2023-05-20T06:11:44;101806.25;;;15.02;65.70
25238;BME280;13185;50.872;5.306;2023-05-20T06:14:10;101799.91;;;15.16;65.44
25238;BME280;13185;50.872;5.306;2023-05-20T06:16:35;101802.09;;;15.24;65.44
25238;BME280;13185;50.872;5.306;2023-05-20T06:19:01;101797.03;;;15.32;65.13
25238;BME280;13185;50.872;5.306;2023-05-20T06:21:27;101798.19;;;15.41;64.97
25238;BME280;13185;50.872;5.306;2023-05-20T06:23:53;101793.75;;;15.52;64.16
25238;BME280;13185;50.872;5.306;2023-05-20T06:26:18;101790.63;;;15.71;63.86
25238;BME280;13185;50.872;5.306;2023-05-20T06:28:44;101795.72;;;15.88;63.69
25238;BME280;13185;50.872;5.306;2023-05-20T06:31:09;101779.03;;;15.95;62.34
25238;BME280;13185;50.872;5.306;2023-05-20T06:33:35;101776.97;;;15.98;62.76
25238;BME280;13185;50.872;5.306;2023-05-20T06:36:11;101778.78;;;16.10;62.54
25238;BME280;13185;50.872;5.306;2023-05-20T06:38:37;101789.22;;;16.28;62.10
25238;BME280;13185;50.872;5.306;2023-05-20T06:41:05;101782.47;;;16.33;61.87
25238;BME280;13185;50.872;5.306;2023-05-20T06:43:31;101779.09;;;16.42;61.71
25238;BME280;13185;50.872;5.306;2023-05-20T06:46:08;101769.59;;;16.61;61.73
25238;BME280;13185;50.872;5.306;2023-05-20T06:48:36;101773.00;;;16.76;60.71
25238;BME280;13185;50.872;5.306;2023-05-20T06:51:03;101761.69;;;16.82;60.32
25238;BME280;13185;50.872;5.306;2023-05-20T06:53:29;101757.66;;;16.87;60.00
25238;BME280;13185;50.872;5.306;2023-05-20T06:55:54;101752.03;;;17.01;58.86
25238;BME280;13185;50.872;5.306;2023-05-20T06:58:20;101759.47;;;17.11;58.71
25238;BME280;13185;50.872;5.306;2023-05-20T07:00:46;101756.25;;;17.17;58.61
25238;BME280;13185;50.872;5.306;2023-05-20T07:03:13;101755.66;;;17.36;58.60
25238;BME280;13185;50.872;5.306;2023-05-20T07:05:38;101752.50;;;17.53;58.01
25238;BME280;13185;50.872;5.306;2023-05-20T07:08:05;101755.19;;;17.64;58.09
25238;BME280;13185;50.872;5.306;2023-05-20T07:10:31;101760.97;;;17.59;57.63
25238;BME280;13185;50.872;5.306;2023-05-20T07:12:57;101757.34;;;17.72;56.91
25238;BME280;13185;50.872;5.306;2023-05-20T07:15:23;101762.13;;;17.79;55.79
25238;BME280;13185;50.872;5.306;2023-05-20T07:17:49;101746.81;;;17.89;56.14
25238;BME280;13185;50.872;5.306;2023-05-20T07:20:14;101751.75;;;17.96;56.29
25238;BME280;13185;50.872;5.306;2023-05-20T07:22:40;101745.44;;;18.06;55.24
25238;BME280;13185;50.872;5.306;2023-05-20T07:25:10;101756.44;;;18.05;55.62
25238;BME280;13185;50.872;5.306;2023-05-20T07:27:36;101760.09;;;18.26;55.52
25238;BME280;13185;50.872;5.306;2023-05-20T07:30:02;101746.16;;;18.52;54.15
25238;BME280;13185;50.872;5.306;2023-05-20T07:32:30;101748.63;;;18.55;53.78
25238;BME280;13185;50.872;5.306;2023-05-20T07:34:55;101743.41;;;18.63;53.26
25238;BME280;13185;50.872;5.306;2023-05-20T07:37:21;101736.00;;;18.65;53.21
25238;BME280;13185;50.872;5.306;2023-05-20T07:39:46;101731.81;;;18.61;53.59
25238;BME280;13185;50.872;5.306;2023-05-20T07:42:12;101725.91;;;18.67;53.07
25238;BME280;13185;50.872;5.306;2023-05-20T07:44:41;101727.94;;;18.74;52.43
25238;BME280;13185;50.872;5.306;2023-05-20T07:47:07;101722.13;;;18.79;52.62
25238;BME280;13185;50.872;5.306;2023-05-20T07:49:33;101724.38;;;18.95;52.80
25238;BME280;13185;50.872;5.306;2023-05-20T07:51:59;101723.44;;;19.06;52.36
25238;BME280;13185;50.872;5.306;2023-05-20T07:54:25;101716.28;;;19.04;52.19
25238;BME280;13185;50.872;5.306;2023-05-20T07:56:51;101713.91;;;18.90;51.92
25238;BME280;13185;50.872;5.306;2023-05-20T07:59:17;101709.84;;;18.85;51.65
25238;BME280;13185;50.872;5.306;2023-05-20T08:01:46;101709.84;;;18.85;51.84
25238;BME280;13185;50.872;5.306;2023-05-20T08:04:14;101710.41;;;18.79;52.55
25238;BME280;13185;50.872;5.306;2023-05-20T08:06:40;101702.63;;;18.74;52.79
25238;BME280;13185;50.872;5.306;2023-05-20T08:09:11;101710.19;;;18.70;52.87
25238;BME280;13185;50.872;5.306;2023-05-20T08:11:40;101706.47;;;18.71;53.12
25238;BME280;13185;50.872;5.306;2023-05-20T08:14:06;101699.59;;;18.67;53.58
25238;BME280;13185;50.872;5.306;2023-05-20T08:16:41;101702.94;;;18.60;53.71
25238;BME280;13185;50.872;5.306;2023-05-20T08:19:07;101697.63;;;18.58;54.35
25238;BME280;13185;50.872;5.306;2023-05-20T08:21:32;101707.78;;;18.56;53.73
25238;BME280;13185;50.872;5.306;2023-05-20T08:23:59;101700.25;;;18.49;53.51
25238;BME280;13185;50.872;5.306;2023-05-20T08:26:26;101699.19;;;18.40;53.25
25238;BME280;13185;50.872;5.306;2023-05-20T08:28:51;101703.97;;;18.48;54.23
25238;BME280;13185;50.872;5.306;2023-05-20T08:31:18;101695.41;;;18.52;54.33
25238;BME280;13185;50.872;5.306;2023-05-20T08:33:44;101697.59;;;18.69;54.85
25238;BME280;13185;50.872;5.306;2023-05-20T08:36:10;101696.19;;;18.75;54.56
25238;BME280;13185;50.872;5.306;2023-05-20T08:38:36;101685.75;;;18.70;53.93
25238;BME280;13185;50.872;5.306;2023-05-20T08:41:01;101697.75;;;18.68;53.91
25238;BME280;13185;50.872;5.306;2023-05-20T08:43:27;101695.75;;;18.70;54.28
25238;BME280;13185;50.872;5.306;2023-05-20T08:45:54;101686.16;;;18.66;53.27
25238;BME280;13185;50.872;5.306;2023-05-20T08:48:25;101686.59;;;18.71;52.77
25238;BME280;13185;50.872;5.306;2023-05-20T08:50:52;101690.59;;;18.67;53.71
25238;BME280;13185;50.872;5.306;2023-05-20T08:53:21;101686.59;;;18.71;53.65
25238;BME280;13185;50.872;5.306;2023-05-20T08:55:59;101694.16;;;18.88;53.88
25238;BME280;13185;50.872;5.306;2023-05-20T08:58:27;101699.47;;;18.90;53.52
25238;BME280;13185;50.872;5.306;2023-05-20T09:00:53;101686.66;;;19.01;53.47
25238;BME280;13185;50.872;5.306;2023-05-20T09:03:19;101685.00;;;19.10;53.59
25238;BME280;13185;50.872;5.306;2023-05-20T09:05:46;101692.78;;;19.24;52.52
25238;BME280;13185;50.872;5.306;2023-05-20T09:08:12;101694.50;;;19.25;53.00
25238;BME280;13185;50.872;5.306;2023-05-20T09:10:39;101680.91;;;19.25;52.71
25238;BME280;13185;50.872;5.306;2023-05-20T09:13:06;101679.25;;;19.34;53.08
25238;BME280;13185;50.872;5.306;2023-05-20T09:15:33;101680.28;;;19.43;53.19
25238;BME280;13185;50.872;5.306;2023-05-20T09:18:03;101684.91;;;19.52;53.05
25238;BME280;13185;50.872;5.306;2023-05-20T09:20:29;101676.28;;;19.47;52.06
25238;BME280;13185;50.872;5.306;2023-05-20T09:22:59;101675.56;;;19.45;52.12
25238;BME280;13185;50.872;5.306;2023-05-20T09:25:25;101677.03;;;19.49;52.08
25238;BME280;13185;50.872;5.306;2023-05-20T09:27:51;101669.78;;;19.59;51.83
25238;BME280;13185;50.872;5.306;2023-05-20T09:30:20;101676.25;;;19.68;51.96
25238;BME280;13185;50.872;5.306;2023-05-20T09:32:56;101665.50;;;19.66;51.80
25238;BME280;13185;50.872;5.306;2023-05-20T09:35:23;101652.22;;;19.73;51.97
25238;BME280;13185;50.872;5.306;2023-05-20T09:37:53;101654.53;;;19.87;51.57
25238;BME280;13185;50.872;5.306;2023-05-20T09:40:24;101664.00;;;19.93;51.20
25238;BME280;13185;50.872;5.306;2023-05-20T09:45:21;101654.69;;;19.95;51.41
25238;BME280;13185;50.872;5.306;2023-05-20T09:47:49;101656.84;;;20.01;51.31
25238;BME280;13185;50.872;5.306;2023-05-20T09:50:16;101650.53;;;20.01;51.38
25238;BME280;13185;50.872;5.306;2023-05-20T09:52:46;101661.72;;;20.17;50.58
25238;BME280;13185;50.872;5.306;2023-05-20T09:55:12;101655.13;;;20.19;50.79
25238;BME280;13185;50.872;5.306;2023-05-20T09:57:39;101654.44;;;20.27;50.63
25238;BME280;13185;50.872;5.306;2023-05-20T10:00:05;101656.16;;;20.28;50.89
25238;BME280;13185;50.872;5.306;2023-05-20T10:02:37;101651.16;;;20.33;50.84
25238;BME280;13185;50.872;5.306;2023-05-20T10:05:11;101647.97;;;20.18;51.73
25238;BME280;13185;50.872;5.306;2023-05-20T10:18:38;101632.50;;;20.29;51.63
25238;BME280;13185;50.872;5.306;2023-05-20T10:21:17;101630.25;;;20.43;50.10
25238;BME280;13185;50.872;5.306;2023-05-20T10:23:43;101635.78;;;20.42;50.50
25238;BME280;13185;50.872;5.306;2023-05-20T10:26:09;101635.78;;;20.42;50.36
25238;BME280;13185;50.872;5.306;2023-05-20T10:28:36;101635.09;;;20.50;50.53
25238;BME280;13185;50.872;5.306;2023-05-20T10:31:13;101622.16;;;20.61;50.36
25238;BME280;13185;50.872;5.306;2023-05-20T10:33:43;101619.56;;;20.79;50.56
25238;BME280;13185;50.872;5.306;2023-05-20T10:36:10;101610.81;;;20.85;49.88
25238;BME280;13185;50.872;5.306;2023-05-20T10:38:57;101599.56;;;20.98;49.99
25238;BME280;13185;50.872;5.306;2023-05-20T10:41:24;101615.28;;;21.14;50.66
25238;BME280;13185;50.872;5.306;2023-05-20T10:44:03;101608.97;;;21.13;50.32
25238;BME280;13185;50.872;5.306;2023-05-20T10:46:31;101603.34;;;21.15;49.83
25238;BME280;13185;50.872;5.306;2023-05-20T10:48:57;101599.34;;;21.19;49.66
25238;BME280;13185;50.872;5.306;2023-05-20T10:51:23;101606.19;;;21.23;49.87
25238;BME280;13185;50.872;5.306;2023-05-20T10:53:52;101599.97;;;21.40;49.46
25238;BME280;13185;50.872;5.306;2023-05-20T10:56:21;101599.44;;;21.54;49.47
25238;BME280;13185;50.872;5.306;2023-05-20T10:58:48;101606.41;;;21.49;48.97
25238;BME280;13185;50.872;5.306;2023-05-20T11:01:14;101608.66;;;21.53;49.05
25238;BME280;13185;50.872;5.306;2023-05-20T11:03:40;101608.28;;;21.48;48.79
25238;BME280;13185;50.872;5.306;2023-05-20T11:06:17;101615.19;;;21.43;49.33
25238;BME280;13185;50.872;5.306;2023-05-20T11:08:43;101598.81;;;21.43;49.34
25238;BME280;13185;50.872;5.306;2023-05-20T11:11:10;101601.44;;;21.62;48.63
25238;BME280;13185;50.872;5.306;2023-05-20T11:13:36;101603.06;;;21.73;48.17
25238;BME280;13185;50.872;5.306;2023-05-20T11:16:02;101594.66;;;21.84;47.88
25238;BME280;13185;50.872;5.306;2023-05-20T11:18:29;101602.94;;;21.92;47.13
25238;BME280;13185;50.872;5.306;2023-05-20T11:20:55;101596.84;;;21.98;47.74
25238;BME280;13185;50.872;5.306;2023-05-20T11:23:21;101595.44;;;21.94;47.98
25238;BME280;13185;50.872;5.306;2023-05-20T11:25:51;101592.09;;;22.00;47.43
25238;BME280;13185;50.872;5.306;2023-05-20T11:28:18;101583.50;;;21.95;47.43
25238;BME280;13185;50.872;5.306;2023-05-20T11:30:46;101580.81;;;22.13;47.87
25238;BME280;13185;50.872;5.306;2023-05-20T11:33:12;101572.13;;;22.35;47.56
25238;BME280;13185;50.872;5.306;2023-05-20T11:35:47;101568.44;;;22.44;47.04
25238;BME280;13185;50.872;5.306;2023-05-20T11:38:13;101574.66;;;22.55;47.04
25238;BME280;13185;50.872;5.306;2023-05-20T11:40:43;101563.22;;;22.59;47.00
25238;BME280;13185;50.872;5.306;2023-05-20T11:43:11;101567.66;;;22.52;46.71
25238;BME280;13185;50.872;5.306;2023-05-20T11:45:41;101563.13;;;22.43;46.18
25238;BME280;13185;50.872;5.306;2023-05-20T11:48:08;101561.41;;;22.42;45.79
25238;BME280;13185;50.872;5.306;2023-05-20T11:50:41;101551.88;;;22.46;45.71
25238;BME280;13185;50.872;5.306;2023-05-20T11:53:15;101543.41;;;22.57;45.72
25238;BME280;13185;50.872;5.306;2023-05-20T11:55:49;101552.09;;;22.79;46.35
25238;BME280;13185;50.872;5.306;2023-05-20T11:58:20;101550.63;;;22.84;45.78
25238;BME280;13185;50.872;5.306;2023-05-20T12:00:46;101540.81;;;22.82;46.12
25238;BME280;13185;50.872;5.306;2023-05-20T12:03:11;101537.63;;;22.86;46.05
25238;BME280;13185;50.872;5.306;2023-05-20T12:05:38;101538.19;;;22.98;45.86
25238;BME280;13185;50.872;5.306;2023-05-20T12:08:04;101519.28;;;23.04;45.80
25238;BME280;13185;50.872;5.306;2023-05-20T12:10:29;101526.78;;;23.11;46.64
25238;BME280;13185;50.872;5.306;2023-05-20T12:12:55;101525.34;;;23.24;45.77
25238;BME280;13185;50.872;5.306;2023-05-20T12:15:21;101536.44;;;23.31;45.17
25238;BME280;13185;50.872;5.306;2023-05-20T12:17:49;101537.16;;;23.41;44.91
25238;BME280;13185;50.872;5.306;2023-05-20T12:20:16;101535.97;;;23.36;44.77
25238;BME280;13185;50.872;5.306;2023-05-20T12:22:45;101536.63;;;23.29;45.11
25238;BME280;13185;50.872;5.306;2023-05-20T12:25:11;101526.84;;;23.19;45.12
25238;BME280;13185;50.872;5.306;2023-05-20T12:27:39;101514.31;;;23.08;44.75
25238;BME280;13185;50.872;5.306;2023-05-20T12:30:05;101514.59;;;22.97;45.00
25238;BME280;13185;50.872;5.306;2023-05-20T12:32:31;101522.66;;;22.98;46.14
25238;BME280;13185;50.872;5.306;2023-05-20T12:34:57;101519.81;;;23.16;45.99
25238;BME280;13185;50.872;5.306;2023-05-20T12:37:22;101515.75;;;23.28;46.37
25238;BME280;13185;50.872;5.306;2023-05-20T12:39:48;101519.03;;;23.40;46.75
25238;BME280;13185;50.872;5.306;2023-05-20T12:42:14;101518.06;;;23.57;45.53
25238;BME280;13185;50.872;5.306;2023-05-20T12:44:39;101505.44;;;23.73;45.39
25238;BME280;13185;50.872;5.306;2023-05-20T12:47:05;101507.53;;;23.87;44.87
25238;BME280;13185;50.872;5.306;2023-05-20T12:49:30;101511.47;;;24.09;44.33
25238;BME280;13185;50.872;5.306;2023-05-20T12:51:56;101513.31;;;24.16;44.62
25238;BME280;13185;50.872;5.306;2023-05-20T12:54:21;101506.66;;;24.35;44.53
25238;BME280;13185;50.872;5.306;2023-05-20T12:56:47;101513.84;;;24.36;44.38
25238;BME280;13185;50.872;5.306;2023-05-20T12:59:13;101510.25;;;24.36;44.35
25238;BME280;13185;50.872;5.306;2023-05-20T13:01:39;101511.44;;;24.41;44.07
25238;BME280;13185;50.872;5.306;2023-05-20T13:04:05;101507.31;;;24.45;44.03